sensor_id;sensor_type;location;lat;lon;timestamp;P1;durP1;ratioP1;P2;durP2;ratioP2
15342;SDS011;7771;48.478;8.936;2023-07-13T00:02:10;5.62;;;1.67;;
15342;SDS011;7771;48.478;8.936;2023-07-13T00:04:37;2.53;;;1.70;;
15342;SDS011;7771;48.478;8.936;2023-07-13T00:07:04;2.87;;;2.08;;
15342;SDS011;7771;48.478;8.936;2023-07-13T00:09:31;2.72;;;1.95;;
15342;SDS011;7771;48.478;8.936;2023-07-13T00:11:58;3.33;;;1.73;;
15342;SDS011;7771;48.478;8.936;2023-07-13T00:14:27;3.58;;;1.73;;
15342;SDS011;7771;48.478;8.936;2023-07-13T00:16:54;2.03;;;1.30;;
15342;SDS011;7771;48.478;8.936;2023-07-13T00:19:21;2.22;;;1.65;;
15342;SDS011;7771;48.478;8.936;2023-07-13T00:21:48;6.05;;;3.75;;
15342;SDS011;7771;48.478;8.936;2023-07-13T00:24:17;2.97;;;1.83;;
15342;SDS011;7771;48.478;8.936;2023-07-13T00:26:44;2.17;;;1.90;;
15342;SDS011;7771;48.478;8.936;2023-07-13T00:29:12;2.50;;;1.50;;
15342;SDS011;7771;48.478;8.936;2023-07-13T00:31:40;2.45;;;1.50;;
15342;SDS011;7771;48.478;8.936;2023-07-13T00:34:06;2.22;;;1.52;;
15342;SDS011;7771;48.478;8.936;2023-07-13T00:36:34;3.45;;;1.85;;
15342;SDS011;7771;48.478;8.936;2023-07-13T00:39:01;4.95;;;1.77;;
15342;SDS011;7771;48.478;8.936;2023-07-13T00:41:28;5.15;;;1.85;;
15342;SDS011;7771;48.478;8.936;2023-07-13T00:43:55;2.83;;;1.87;;
15342;SDS011;7771;48.478;8.936;2023-07-13T00:46:23;1.65;;;1.50;;
15342;SDS011;7771;48.478;8.936;2023-07-13T00:48:49;3.65;;;1.80;;
15342;SDS011;7771;48.478;8.936;2023-07-13T00:51:17;3.58;;;1.50;;
15342;SDS011;7771;48.478;8.936;2023-07-13T00:53:43;2.50;;;1.70;;
15342;SDS011;7771;48.478;8.936;2023-07-13T00:56:10;2.78;;;1.42;;
15342;SDS011;7771;48.478;8.936;2023-07-13T00:58:37;3.10;;;2.03;;
15342;SDS011;7771;48.478;8.936;2023-07-13T01:01:05;2.12;;;1.40;;
15342;SDS011;7771;48.478;8.936;2023-07-13T01:03:32;3.58;;;1.50;;
15342;SDS011;7771;48.478;8.936;2023-07-13T01:06:00;2.10;;;1.50;;
15342;SDS011;7771;48.478;8.936;2023-07-13T01:08:27;4.25;;;1.52;;
15342;SDS011;7771;48.478;8.936;2023-07-13T01:10:54;4.22;;;1.60;;
15342;SDS011;7771;48.478;8.936;2023-07-13T01:13:20;3.55;;;1.40;;
15342;SDS011;7771;48.478;8.936;2023-07-13T01:15:49;4.00;;;1.50;;
15342;SDS011;7771;48.478;8.936;2023-07-13T01:18:18;3.53;;;1.50;;
15342;SDS011;7771;48.478;8.936;2023-07-13T01:20:50;2.87;;;2.30;;
15342;SDS011;7771;48.478;8.936;2023-07-13T01:23:28;3.70;;;1.45;;
15342;SDS011;7771;48.478;8.936;2023-07-13T01:25:55;2.92;;;1.73;;
15342;SDS011;7771;48.478;8.936;2023-07-13T01:28:22;3.42;;;1.42;;
15342;SDS011;7771;48.478;8.936;2023-07-13T01:30:49;2.53;;;1.30;;
15342;SDS011;7771;48.478;8.936;2023-07-13T01:33:16;1.95;;;1.50;;
15342;SDS011;7771;48.478;8.936;2023-07-13T01:35:43;3.03;;;1.45;;
15342;SDS011;7771;48.478;8.936;2023-07-13T01:38:09;3.60;;;1.40;;
15342;SDS011;7771;48.478;8.936;2023-07-13T01:40:36;2.42;;;1.10;;
15342;SDS011;7771;48.478;8.936;2023-07-13T01:43:05;2.75;;;1.50;;
15342;SDS011;7771;48.478;8.936;2023-07-13T01:45:31;3.08;;;1.67;;
15342;SDS011;7771;48.478;8.936;2023-07-13T01:47:59;1.62;;;1.37;;
15342;SDS011;7771;48.478;8.936;2023-07-13T01:50:25;2.33;;;1.70;;
15342;SDS011;7771;48.478;8.936;2023-07-13T01:52:53;1.40;;;1.30;;
15342;SDS011;7771;48.478;8.936;2023-07-13T01:55:20;3.03;;;1.58;;
15342;SDS011;7771;48.478;8.936;2023-07-13T01:57:48;2.65;;;1.35;;
15342;SDS011;7771;48.478;8.936;2023-07-13T02:00:16;3.50;;;1.37;;
15342;SDS011;7771;48.478;8.936;2023-07-13T02:02:42;2.70;;;1.40;;
15342;SDS011;7771;48.478;8.936;2023-07-13T02:05:11;2.75;;;1.55;;
15342;SDS011;7771;48.478;8.936;2023-07-13T02:10:10;1.92;;;1.30;;
15342;SDS011;7771;48.478;8.936;2023-07-13T02:12:38;2.17;;;1.58;;
15342;SDS011;7771;48.478;8.936;2023-07-13T02:15:04;2.97;;;1.67;;
15342;SDS011;7771;48.478;8.936;2023-07-13T02:17:32;3.00;;;1.55;;
15342;SDS011;7771;48.478;8.936;2023-07-13T02:19:58;1.60;;;1.27;;
15342;SDS011;7771;48.478;8.936;2023-07-13T02:22:26;2.10;;;1.30;;
15342;SDS011;7771;48.478;8.936;2023-07-13T02:24:53;4.00;;;1.48;;
15342;SDS011;7771;48.478;8.936;2023-07-13T02:27:20;2.50;;;1.85;;
15342;SDS011;7771;48.478;8.936;2023-07-13T02:29:48;4.22;;;1.67;;
15342;SDS011;7771;48.478;8.936;2023-07-13T02:32:15;3.92;;;1.65;;
15342;SDS011;7771;48.478;8.936;2023-07-13T02:34:42;2.90;;;1.55;;
15342;SDS011;7771;48.478;8.936;2023-07-13T02:37:10;4.45;;;1.70;;
15342;SDS011;7771;48.478;8.936;2023-07-13T02:39:37;5.05;;;1.70;;
15342;SDS011;7771;48.478;8.936;2023-07-13T02:42:03;3.75;;;1.50;;
15342;SDS011;7771;48.478;8.936;2023-07-13T02:44:31;2.87;;;1.50;;
15342;SDS011;7771;48.478;8.936;2023-07-13T02:46:58;2.37;;;1.70;;
15342;SDS011;7771;48.478;8.936;2023-07-13T02:49:26;4.62;;;1.45;;
15342;SDS011;7771;48.478;8.936;2023-07-13T02:51:53;2.28;;;1.70;;
15342;SDS011;7771;48.478;8.936;2023-07-13T02:54:20;3.10;;;1.85;;
15342;SDS011;7771;48.478;8.936;2023-07-13T02:56:48;4.78;;;1.58;;
15342;SDS011;7771;48.478;8.936;2023-07-13T02:59:16;4.18;;;1.77;;
15342;SDS011;7771;48.478;8.936;2023-07-13T03:01:43;2.97;;;1.70;;
15342;SDS011;7771;48.478;8.936;2023-07-13T03:04:10;2.17;;;1.55;;
15342;SDS011;7771;48.478;8.936;2023-07-13T03:06:36;2.28;;;1.58;;
15342;SDS011;7771;48.478;8.936;2023-07-13T03:09:04;2.30;;;1.58;;
15342;SDS011;7771;48.478;8.936;2023-07-13T03:11:32;3.20;;;1.73;;
15342;SDS011;7771;48.478;8.936;2023-07-13T03:14:00;2.00;;;1.62;;
15342;SDS011;7771;48.478;8.936;2023-07-13T03:16:26;1.80;;;1.67;;
15342;SDS011;7771;48.478;8.936;2023-07-13T03:18:53;3.20;;;1.62;;
15342;SDS011;7771;48.478;8.936;2023-07-13T03:21:20;3.85;;;1.70;;
15342;SDS011;7771;48.478;8.936;2023-07-13T03:23:48;3.33;;;1.77;;
15342;SDS011;7771;48.478;8.936;2023-07-13T03:26:16;5.22;;;1.90;;
15342;SDS011;7771;48.478;8.936;2023-07-13T03:28:41;3.95;;;1.55;;
15342;SDS011;7771;48.478;8.936;2023-07-13T03:31:09;6.40;;;1.85;;
15342;SDS011;7771;48.478;8.936;2023-07-13T03:33:36;1.52;;;1.35;;
15342;SDS011;7771;48.478;8.936;2023-07-13T03:36:04;2.45;;;1.25;;
15342;SDS011;7771;48.478;8.936;2023-07-13T03:38:30;3.05;;;1.55;;
15342;SDS011;7771;48.478;8.936;2023-07-13T03:40:57;3.12;;;2.05;;
15342;SDS011;7771;48.478;8.936;2023-07-13T03:43:23;2.22;;;1.60;;
15342;SDS011;7771;48.478;8.936;2023-07-13T03:45:50;3.65;;;1.95;;
15342;SDS011;7771;48.478;8.936;2023-07-13T03:48:17;2.42;;;1.50;;
15342;SDS011;7771;48.478;8.936;2023-07-13T03:50:46;4.00;;;1.85;;
15342;SDS011;7771;48.478;8.936;2023-07-13T03:53:12;3.90;;;1.55;;
15342;SDS011;7771;48.478;8.936;2023-07-13T03:55:40;4.05;;;2.03;;
15342;SDS011;7771;48.478;8.936;2023-07-13T04:00:45;5.15;;;2.00;;
15342;SDS011;7771;48.478;8.936;2023-07-13T04:03:14;3.47;;;1.83;;
15342;SDS011;7771;48.478;8.936;2023-07-13T04:05:40;2.03;;;1.45;;
15342;SDS011;7771;48.478;8.936;2023-07-13T04:08:08;4.93;;;1.73;;
15342;SDS011;7771;48.478;8.936;2023-07-13T04:10:34;3.00;;;1.77;;
15342;SDS011;7771;48.478;8.936;2023-07-13T04:13:03;1.33;;;1.23;;
15342;SDS011;7771;48.478;8.936;2023-07-13T04:15:30;3.35;;;1.58;;
15342;SDS011;7771;48.478;8.936;2023-07-13T04:17:56;6.05;;;1.80;;
15342;SDS011;7771;48.478;8.936;2023-07-13T04:20:25;3.28;;;1.90;;
15342;SDS011;7771;48.478;8.936;2023-07-13T04:22:52;6.95;;;1.80;;
15342;SDS011;7771;48.478;8.936;2023-07-13T04:25:21;5.22;;;1.95;;
15342;SDS011;7771;48.478;8.936;2023-07-13T04:27:49;4.80;;;1.80;;
15342;SDS011;7771;48.478;8.936;2023-07-13T04:30:15;3.05;;;1.58;;
15342;SDS011;7771;48.478;8.936;2023-07-13T04:32:42;4.75;;;1.80;;
15342;SDS011;7771;48.478;8.936;2023-07-13T04:35:09;3.37;;;1.90;;
15342;SDS011;7771;48.478;8.936;2023-07-13T04:37:38;2.53;;;2.15;;
15342;SDS011;7771;48.478;8.936;2023-07-13T04:40:04;3.87;;;1.90;;
15342;SDS011;7771;48.478;8.936;2023-07-13T04:42:32;3.10;;;1.90;;
15342;SDS011;7771;48.478;8.936;2023-07-13T04:44:58;4.47;;;2.00;;
15342;SDS011;7771;48.478;8.936;2023-07-13T04:47:29;4.40;;;2.25;;
15342;SDS011;7771;48.478;8.936;2023-07-13T04:49:53;3.10;;;1.90;;
15342;SDS011;7771;48.478;8.936;2023-07-13T04:52:20;2.62;;;1.75;;
15342;SDS011;7771;48.478;8.936;2023-07-13T04:54:46;3.03;;;2.10;;
15342;SDS011;7771;48.478;8.936;2023-07-13T04:57:13;3.97;;;1.58;;
15342;SDS011;7771;48.478;8.936;2023-07-13T04:59:40;2.03;;;1.50;;
15342;SDS011;7771;48.478;8.936;2023-07-13T05:02:07;2.42;;;1.80;;
15342;SDS011;7771;48.478;8.936;2023-07-13T05:04:35;3.08;;;2.00;;
15342;SDS011;7771;48.478;8.936;2023-07-13T05:07:02;2.35;;;1.87;;
15342;SDS011;7771;48.478;8.936;2023-07-13T05:09:30;2.35;;;1.80;;
15342;SDS011;7771;48.478;8.936;2023-07-13T05:11:57;5.57;;;2.03;;
15342;SDS011;7771;48.478;8.936;2023-07-13T05:14:24;5.05;;;1.90;;
15342;SDS011;7771;48.478;8.936;2023-07-13T05:16:51;2.20;;;1.77;;
15342;SDS011;7771;48.478;8.936;2023-07-13T05:19:18;3.40;;;1.77;;
15342;SDS011;7771;48.478;8.936;2023-07-13T05:21:45;5.35;;;1.80;;
15342;SDS011;7771;48.478;8.936;2023-07-13T05:24:11;3.47;;;2.05;;
15342;SDS011;7771;48.478;8.936;2023-07-13T05:26:40;4.22;;;2.50;;
15342;SDS011;7771;48.478;8.936;2023-07-13T05:29:07;2.58;;;2.20;;
15342;SDS011;7771;48.478;8.936;2023-07-13T05:31:33;3.00;;;2.15;;
15342;SDS011;7771;48.478;8.936;2023-07-13T05:34:01;5.07;;;2.40;;
15342;SDS011;7771;48.478;8.936;2023-07-13T05:36:28;2.87;;;2.25;;
15342;SDS011;7771;48.478;8.936;2023-07-13T05:38:56;6.35;;;2.17;;
15342;SDS011;7771;48.478;8.936;2023-07-13T05:41:22;2.62;;;2.20;;
15342;SDS011;7771;48.478;8.936;2023-07-13T05:43:50;4.57;;;2.00;;
15342;SDS011;7771;48.478;8.936;2023-07-13T05:46:18;2.92;;;2.42;;
15342;SDS011;7771;48.478;8.936;2023-07-13T05:48:46;2.25;;;1.87;;
15342;SDS011;7771;48.478;8.936;2023-07-13T05:51:14;4.72;;;2.10;;
15342;SDS011;7771;48.478;8.936;2023-07-13T05:53:42;6.95;;;2.00;;
15342;SDS011;7771;48.478;8.936;2023-07-13T05:56:10;2.55;;;2.00;;
15342;SDS011;7771;48.478;8.936;2023-07-13T05:58:37;3.28;;;2.15;;
15342;SDS011;7771;48.478;8.936;2023-07-13T06:01:05;2.55;;;2.10;;
15342;SDS011;7771;48.478;8.936;2023-07-13T06:03:31;2.45;;;2.10;;
15342;SDS011;7771;48.478;8.936;2023-07-13T06:05:58;2.83;;;2.05;;
15342;SDS011;7771;48.478;8.936;2023-07-13T06:08:27;5.90;;;2.37;;
15342;SDS011;7771;48.478;8.936;2023-07-13T06:10:53;5.20;;;2.10;;
15342;SDS011;7771;48.478;8.936;2023-07-13T06:13:21;2.80;;;2.30;;
15342;SDS011;7771;48.478;8.936;2023-07-13T06:15:49;3.60;;;2.00;;
15342;SDS011;7771;48.478;8.936;2023-07-13T06:18:15;4.85;;;2.20;;
15342;SDS011;7771;48.478;8.936;2023-07-13T06:20:42;5.43;;;2.50;;
15342;SDS011;7771;48.478;8.936;2023-07-13T06:23:09;3.97;;;1.90;;
15342;SDS011;7771;48.478;8.936;2023-07-13T06:25:37;4.20;;;2.10;;
15342;SDS011;7771;48.478;8.936;2023-07-13T06:28:03;1.95;;;1.75;;
15342;SDS011;7771;48.478;8.936;2023-07-13T06:30:30;5.82;;;2.12;;
15342;SDS011;7771;48.478;8.936;2023-07-13T06:32:57;4.72;;;1.67;;
15342;SDS011;7771;48.478;8.936;2023-07-13T06:35:24;6.05;;;1.95;;
15342;SDS011;7771;48.478;8.936;2023-07-13T06:37:51;2.47;;;1.62;;
15342;SDS011;7771;48.478;8.936;2023-07-13T06:40:19;4.97;;;1.80;;
15342;SDS011;7771;48.478;8.936;2023-07-13T06:42:46;2.75;;;1.50;;
15342;SDS011;7771;48.478;8.936;2023-07-13T06:45:14;4.47;;;1.95;;
15342;SDS011;7771;48.478;8.936;2023-07-13T06:47:41;4.53;;;2.05;;
15342;SDS011;7771;48.478;8.936;2023-07-13T06:50:09;5.57;;;1.65;;
15342;SDS011;7771;48.478;8.936;2023-07-13T06:52:36;4.70;;;1.60;;
15342;SDS011;7771;48.478;8.936;2023-07-13T06:55:05;2.30;;;1.40;;
15342;SDS011;7771;48.478;8.936;2023-07-13T06:57:32;2.53;;;1.42;;
15342;SDS011;7771;48.478;8.936;2023-07-13T06:59:59;8.15;;;1.77;;
15342;SDS011;7771;48.478;8.936;2023-07-13T07:02:26;4.15;;;1.70;;
15342;SDS011;7771;48.478;8.936;2023-07-13T07:04:52;3.00;;;1.62;;
15342;SDS011;7771;48.478;8.936;2023-07-13T07:07:23;3.85;;;1.20;;
15342;SDS011;7771;48.478;8.936;2023-07-13T07:09:49;4.00;;;1.35;;
15342;SDS011;7771;48.478;8.936;2023-07-13T07:12:15;4.20;;;1.37;;
15342;SDS011;7771;48.478;8.936;2023-07-13T07:14:42;10.05;;;1.50;;
15342;SDS011;7771;48.478;8.936;2023-07-13T07:17:09;2.55;;;1.00;;
15342;SDS011;7771;48.478;8.936;2023-07-13T07:19:35;3.33;;;1.30;;
15342;SDS011;7771;48.478;8.936;2023-07-13T07:22:02;3.20;;;1.15;;
15342;SDS011;7771;48.478;8.936;2023-07-13T07:24:29;2.33;;;1.23;;
15342;SDS011;7771;48.478;8.936;2023-07-13T07:26:58;2.20;;;1.45;;
15342;SDS011;7771;48.478;8.936;2023-07-13T07:29:25;2.37;;;1.00;;
15342;SDS011;7771;48.478;8.936;2023-07-13T07:31:52;3.12;;;1.35;;
15342;SDS011;7771;48.478;8.936;2023-07-13T07:34:19;1.73;;;1.17;;
15342;SDS011;7771;48.478;8.936;2023-07-13T07:36:47;2.45;;;1.02;;
15342;SDS011;7771;48.478;8.936;2023-07-13T07:39:14;2.12;;;1.10;;
15342;SDS011;7771;48.478;8.936;2023-07-13T07:41:42;2.67;;;1.00;;
15342;SDS011;7771;48.478;8.936;2023-07-13T07:44:09;4.20;;;1.20;;
15342;SDS011;7771;48.478;8.936;2023-07-13T07:46:39;2.33;;;1.20;;
15342;SDS011;7771;48.478;8.936;2023-07-13T07:49:05;2.10;;;1.17;;
15342;SDS011;7771;48.478;8.936;2023-07-13T07:51:32;4.12;;;1.02;;
15342;SDS011;7771;48.478;8.936;2023-07-13T07:54:00;3.40;;;1.10;;
15342;SDS011;7771;48.478;8.936;2023-07-13T07:56:26;2.08;;;1.00;;
15342;SDS011;7771;48.478;8.936;2023-07-13T08:01:39;1.70;;;1.10;;
15342;SDS011;7771;48.478;8.936;2023-07-13T08:04:05;2.25;;;1.35;;
15342;SDS011;7771;48.478;8.936;2023-07-13T08:06:32;2.08;;;1.10;;
15342;SDS011;7771;48.478;8.936;2023-07-13T08:08:59;1.40;;;0.90;;
15342;SDS011;7771;48.478;8.936;2023-07-13T08:11:25;4.65;;;2.05;;
15342;SDS011;7771;48.478;8.936;2023-07-13T08:13:53;3.62;;;1.25;;
15342;SDS011;7771;48.478;8.936;2023-07-13T08:16:20;1.58;;;1.08;;
15342;SDS011;7771;48.478;8.936;2023-07-13T08:18:47;2.33;;;1.30;;
15342;SDS011;7771;48.478;8.936;2023-07-13T08:21:16;4.07;;;1.05;;
15342;SDS011;7771;48.478;8.936;2023-07-13T08:23:42;3.53;;;1.17;;
15342;SDS011;7771;48.478;8.936;2023-07-13T08:26:11;1.98;;;1.10;;
15342;SDS011;7771;48.478;8.936;2023-07-13T08:28:37;3.62;;;1.37;;
15342;SDS011;7771;48.478;8.936;2023-07-13T08:31:06;3.67;;;1.42;;
15342;SDS011;7771;48.478;8.936;2023-07-13T08:33:34;2.78;;;1.12;;
15342;SDS011;7771;48.478;8.936;2023-07-13T08:36:00;2.75;;;1.10;;
15342;SDS011;7771;48.478;8.936;2023-07-13T08:38:27;4.12;;;0.93;;
15342;SDS011;7771;48.478;8.936;2023-07-13T08:40:55;4.85;;;1.70;;
15342;SDS011;7771;48.478;8.936;2023-07-13T08:43:25;3.95;;;1.70;;
15342;SDS011;7771;48.478;8.936;2023-07-13T08:45:57;3.55;;;1.08;;
15342;SDS011;7771;48.478;8.936;2023-07-13T08:48:26;2.92;;;1.05;;
15342;SDS011;7771;48.478;8.936;2023-07-13T08:50:56;5.87;;;1.77;;
15342;SDS011;7771;48.478;8.936;2023-07-13T08:53:23;3.03;;;1.23;;
15342;SDS011;7771;48.478;8.936;2023-07-13T08:55:52;6.30;;;1.30;;
15342;SDS011;7771;48.478;8.936;2023-07-13T08:58:20;3.33;;;1.25;;
15342;SDS011;7771;48.478;8.936;2023-07-13T09:00:50;4.62;;;1.35;;
15342;SDS011;7771;48.478;8.936;2023-07-13T09:03:23;2.17;;;1.20;;
15342;SDS011;7771;48.478;8.936;2023-07-13T09:05:51;3.15;;;1.20;;
15342;SDS011;7771;48.478;8.936;2023-07-13T09:10:53;5.37;;;1.15;;
15342;SDS011;7771;48.478;8.936;2023-07-13T09:13:27;3.80;;;1.20;;
15342;SDS011;7771;48.478;8.936;2023-07-13T09:15:51;2.67;;;1.20;;
15342;SDS011;7771;48.478;8.936;2023-07-13T09:18:23;4.72;;;1.20;;
15342;SDS011;7771;48.478;8.936;2023-07-13T09:20:49;5.72;;;1.20;;
15342;SDS011;7771;48.478;8.936;2023-07-13T09:23:17;3.37;;;1.00;;
15342;SDS011;7771;48.478;8.936;2023-07-13T09:25:44;1.98;;;1.02;;
15342;SDS011;7771;48.478;8.936;2023-07-13T09:28:22;3.53;;;1.30;;
15342;SDS011;7771;48.478;8.936;2023-07-13T09:30:56;4.00;;;1.10;;
15342;SDS011;7771;48.478;8.936;2023-07-13T09:33:22;2.45;;;1.20;;
15342;SDS011;7771;48.478;8.936;2023-07-13T09:35:49;1.98;;;1.20;;
15342;SDS011;7771;48.478;8.936;2023-07-13T09:38:18;4.93;;;1.25;;
15342;SDS011;7771;48.478;8.936;2023-07-13T09:40:53;2.60;;;1.12;;
15342;SDS011;7771;48.478;8.936;2023-07-13T09:43:13;2.87;;;1.40;;
15342;SDS011;7771;48.478;8.936;2023-07-13T09:45:40;2.53;;;1.17;;
15342;SDS011;7771;48.478;8.936;2023-07-13T09:48:10;2.33;;;1.10;;
15342;SDS011;7771;48.478;8.936;2023-07-13T09:50:35;3.97;;;1.33;;
15342;SDS011;7771;48.478;8.936;2023-07-13T09:53:03;1.40;;;1.00;;
15342;SDS011;7771;48.478;8.936;2023-07-13T09:55:31;3.22;;;1.15;;
15342;SDS011;7771;48.478;8.936;2023-07-13T09:58:02;2.60;;;1.10;;
15342;SDS011;7771;48.478;8.936;2023-07-13T10:00:27;2.72;;;1.20;;
15342;SDS011;7771;48.478;8.936;2023-07-13T10:03:02;3.90;;;1.37;;
15342;SDS011;7771;48.478;8.936;2023-07-13T10:05:28;2.58;;;1.25;;
15342;SDS011;7771;48.478;8.936;2023-07-13T10:07:55;2.47;;;0.80;;
15342;SDS011;7771;48.478;8.936;2023-07-13T10:10:23;2.10;;;1.15;;
15342;SDS011;7771;48.478;8.936;2023-07-13T10:12:50;4.03;;;1.23;;
15342;SDS011;7771;48.478;8.936;2023-07-13T10:15:21;6.15;;;1.20;;
15342;SDS011;7771;48.478;8.936;2023-07-13T10:17:46;2.50;;;1.20;;
15342;SDS011;7771;48.478;8.936;2023-07-13T10:20:14;2.17;;;1.12;;
15342;SDS011;7771;48.478;8.936;2023-07-13T10:22:46;2.92;;;1.15;;
15342;SDS011;7771;48.478;8.936;2023-07-13T10:25:18;2.28;;;1.10;;
15342;SDS011;7771;48.478;8.936;2023-07-13T10:27:45;1.83;;;1.10;;
15342;SDS011;7771;48.478;8.936;2023-07-13T10:30:17;1.92;;;1.40;;
15342;SDS011;7771;48.478;8.936;2023-07-13T10:32:43;3.60;;;1.60;;
15342;SDS011;7771;48.478;8.936;2023-07-13T10:35:11;1.85;;;1.12;;
15342;SDS011;7771;48.478;8.936;2023-07-13T10:37:41;2.72;;;1.30;;
15342;SDS011;7771;48.478;8.936;2023-07-13T10:40:06;2.12;;;1.42;;
15342;SDS011;7771;48.478;8.936;2023-07-13T10:42:35;3.05;;;1.20;;
15342;SDS011;7771;48.478;8.936;2023-07-13T10:45:00;3.55;;;1.48;;
15342;SDS011;7771;48.478;8.936;2023-07-13T10:47:27;1.85;;;1.10;;
15342;SDS011;7771;48.478;8.936;2023-07-13T10:49:54;1.55;;;0.98;;
15342;SDS011;7771;48.478;8.936;2023-07-13T10:55:10;3.08;;;1.08;;
15342;SDS011;7771;48.478;8.936;2023-07-13T10:57:32;1.40;;;1.00;;
15342;SDS011;7771;48.478;8.936;2023-07-13T11:00:14;9.73;;;1.52;;
15342;SDS011;7771;48.478;8.936;2023-07-13T11:02:40;1.62;;;0.82;;
15342;SDS011;7771;48.478;8.936;2023-07-13T11:05:21;3.78;;;1.08;;
15342;SDS011;7771;48.478;8.936;2023-07-13T11:07:52;1.50;;;0.82;;
15342;SDS011;7771;48.478;8.936;2023-07-13T11:10:45;2.17;;;1.20;;
15342;SDS011;7771;48.478;8.936;2023-07-13T11:12:51;1.73;;;1.10;;
15342;SDS011;7771;48.478;8.936;2023-07-13T11:15:27;3.42;;;1.12;;
15342;SDS011;7771;48.478;8.936;2023-07-13T11:17:48;1.83;;;1.30;;
15342;SDS011;7771;48.478;8.936;2023-07-13T11:22:51;2.05;;;1.33;;
15342;SDS011;7771;48.478;8.936;2023-07-13T11:25:27;5.32;;;1.00;;
15342;SDS011;7771;48.478;8.936;2023-07-13T11:28:04;3.72;;;1.23;;
15342;SDS011;7771;48.478;8.936;2023-07-13T11:30:37;3.42;;;1.35;;
15342;SDS011;7771;48.478;8.936;2023-07-13T11:33:20;2.90;;;0.98;;
15342;SDS011;7771;48.478;8.936;2023-07-13T11:36:03;2.03;;;1.15;;
15342;SDS011;7771;48.478;8.936;2023-07-13T11:38:36;4.32;;;1.17;;
15342;SDS011;7771;48.478;8.936;2023-07-13T11:41:06;3.83;;;1.23;;
15342;SDS011;7771;48.478;8.936;2023-07-13T11:43:31;5.28;;;1.52;;
15342;SDS011;7771;48.478;8.936;2023-07-13T11:45:58;2.22;;;1.20;;
15342;SDS011;7771;48.478;8.936;2023-07-13T11:48:26;4.18;;;1.80;;
15342;SDS011;7771;48.478;8.936;2023-07-13T11:50:55;2.53;;;1.10;;
15342;SDS011;7771;48.478;8.936;2023-07-13T11:53:22;2.33;;;1.50;;
15342;SDS011;7771;48.478;8.936;2023-07-13T11:55:48;4.65;;;2.45;;
15342;SDS011;7771;48.478;8.936;2023-07-13T11:58:17;3.45;;;0.98;;
15342;SDS011;7771;48.478;8.936;2023-07-13T12:00:44;3.60;;;1.10;;
15342;SDS011;7771;48.478;8.936;2023-07-13T12:03:11;2.80;;;1.25;;
15342;SDS011;7771;48.478;8.936;2023-07-13T12:05:38;1.67;;;0.98;;
15342;SDS011;7771;48.478;8.936;2023-07-13T12:08:08;3.58;;;1.20;;
15342;SDS011;7771;48.478;8.936;2023-07-13T12:10:34;1.70;;;1.12;;
15342;SDS011;7771;48.478;8.936;2023-07-13T12:13:02;1.60;;;0.98;;
15342;SDS011;7771;48.478;8.936;2023-07-13T12:15:38;3.25;;;1.00;;
15342;SDS011;7771;48.478;8.936;2023-07-13T12:18:00;3.70;;;1.20;;
15342;SDS011;7771;48.478;8.936;2023-07-13T12:20:35;1.48;;;0.98;;
15342;SDS011;7771;48.478;8.936;2023-07-13T12:22:57;2.55;;;1.10;;
15342;SDS011;7771;48.478;8.936;2023-07-13T12:25:23;1.45;;;1.00;;
15342;SDS011;7771;48.478;8.936;2023-07-13T12:27:52;1.90;;;1.00;;
15342;SDS011;7771;48.478;8.936;2023-07-13T12:30:24;2.92;;;1.20;;
15342;SDS011;7771;48.478;8.936;2023-07-13T12:32:56;1.90;;;1.10;;
15342;SDS011;7771;48.478;8.936;2023-07-13T12:35:40;2.42;;;1.20;;
15342;SDS011;7771;48.478;8.936;2023-07-13T12:38:07;4.25;;;1.00;;
15342;SDS011;7771;48.478;8.936;2023-07-13T12:40:33;2.50;;;1.10;;
15342;SDS011;7771;48.478;8.936;2023-07-13T12:43:00;3.12;;;1.25;;
15342;SDS011;7771;48.478;8.936;2023-07-13T12:45:27;3.40;;;0.90;;
15342;SDS011;7771;48.478;8.936;2023-07-13T12:47:56;1.52;;;0.80;;
15342;SDS011;7771;48.478;8.936;2023-07-13T12:50:22;2.35;;;1.12;;
15342;SDS011;7771;48.478;8.936;2023-07-13T12:52:51;1.12;;;0.80;;
15342;SDS011;7771;48.478;8.936;2023-07-13T12:55:17;2.72;;;1.37;;
15342;SDS011;7771;48.478;8.936;2023-07-13T12:57:49;1.40;;;1.15;;
15342;SDS011;7771;48.478;8.936;2023-07-13T13:00:24;1.48;;;0.88;;
15342;SDS011;7771;48.478;8.936;2023-07-13T13:02:53;1.87;;;1.12;;
15342;SDS011;7771;48.478;8.936;2023-07-13T13:05:21;1.75;;;0.90;;
15342;SDS011;7771;48.478;8.936;2023-07-13T13:07:51;3.17;;;1.00;;
15342;SDS011;7771;48.478;8.936;2023-07-13T13:10:17;1.73;;;1.00;;
15342;SDS011;7771;48.478;8.936;2023-07-13T13:12:44;1.80;;;1.10;;
15342;SDS011;7771;48.478;8.936;2023-07-13T13:15:11;2.10;;;1.10;;
15342;SDS011;7771;48.478;8.936;2023-07-13T13:17:39;1.00;;;0.90;;
15342;SDS011;7771;48.478;8.936;2023-07-13T13:22:40;2.58;;;1.10;;
15342;SDS011;7771;48.478;8.936;2023-07-13T13:25:11;2.37;;;1.10;;
15342;SDS011;7771;48.478;8.936;2023-07-13T13:27:40;2.55;;;1.10;;
15342;SDS011;7771;48.478;8.936;2023-07-13T13:30:12;2.40;;;1.00;;
15342;SDS011;7771;48.478;8.936;2023-07-13T13:32:39;1.92;;;1.00;;
15342;SDS011;7771;48.478;8.936;2023-07-13T13:35:08;1.90;;;1.05;;
15342;SDS011;7771;48.478;8.936;2023-07-13T13:37:48;3.53;;;1.33;;
15342;SDS011;7771;48.478;8.936;2023-07-13T13:40:17;1.15;;;0.95;;
15342;SDS011;7771;48.478;8.936;2023-07-13T13:42:42;1.52;;;1.05;;
15342;SDS011;7771;48.478;8.936;2023-07-13T13:45:10;0.90;;;0.80;;
15342;SDS011;7771;48.478;8.936;2023-07-13T13:47:37;2.92;;;1.17;;
15342;SDS011;7771;48.478;8.936;2023-07-13T13:50:11;2.65;;;1.15;;
15342;SDS011;7771;48.478;8.936;2023-07-13T13:52:41;1.42;;;0.88;;
15342;SDS011;7771;48.478;8.936;2023-07-13T13:55:12;1.52;;;0.93;;
15342;SDS011;7771;48.478;8.936;2023-07-13T13:57:39;3.15;;;1.10;;
15342;SDS011;7771;48.478;8.936;2023-07-13T14:00:05;1.52;;;1.00;;
15342;SDS011;7771;48.478;8.936;2023-07-13T14:02:33;1.65;;;1.17;;
15342;SDS011;7771;48.478;8.936;2023-07-13T14:05:01;3.17;;;1.10;;
15342;SDS011;7771;48.478;8.936;2023-07-13T14:07:28;3.37;;;1.00;;
15342;SDS011;7771;48.478;8.936;2023-07-13T14:09:56;2.22;;;1.10;;
15342;SDS011;7771;48.478;8.936;2023-07-13T14:12:24;1.50;;;1.05;;
15342;SDS011;7771;48.478;8.936;2023-07-13T14:14:51;2.03;;;1.00;;
15342;SDS011;7771;48.478;8.936;2023-07-13T14:17:20;3.58;;;1.10;;
15342;SDS011;7771;48.478;8.936;2023-07-13T14:19:47;2.40;;;1.05;;
15342;SDS011;7771;48.478;8.936;2023-07-13T14:22:14;1.75;;;1.12;;
15342;SDS011;7771;48.478;8.936;2023-07-13T14:24:42;1.37;;;0.93;;
15342;SDS011;7771;48.478;8.936;2023-07-13T14:27:09;1.45;;;0.90;;
15342;SDS011;7771;48.478;8.936;2023-07-13T14:29:36;2.47;;;0.90;;
15342;SDS011;7771;48.478;8.936;2023-07-13T14:32:04;1.55;;;1.20;;
15342;SDS011;7771;48.478;8.936;2023-07-13T14:34:31;2.15;;;1.05;;
15342;SDS011;7771;48.478;8.936;2023-07-13T14:36:59;1.45;;;1.02;;
15342;SDS011;7771;48.478;8.936;2023-07-13T14:39:26;1.85;;;0.90;;
15342;SDS011;7771;48.478;8.936;2023-07-13T14:41:54;1.55;;;1.10;;
15342;SDS011;7771;48.478;8.936;2023-07-13T14:44:22;2.10;;;1.23;;
15342;SDS011;7771;48.478;8.936;2023-07-13T14:46:47;4.78;;;1.37;;
15342;SDS011;7771;48.478;8.936;2023-07-13T14:49:37;4.10;;;1.10;;
15342;SDS011;7771;48.478;8.936;2023-07-13T14:52:11;1.30;;;1.00;;
15342;SDS011;7771;48.478;8.936;2023-07-13T14:54:37;2.50;;;1.10;;
15342;SDS011;7771;48.478;8.936;2023-07-13T14:57:05;2.28;;;1.23;;
15342;SDS011;7771;48.478;8.936;2023-07-13T14:59:35;2.87;;;1.90;;
15342;SDS011;7771;48.478;8.936;2023-07-13T15:02:02;3.47;;;1.65;;
15342;SDS011;7771;48.478;8.936;2023-07-13T15:04:30;1.73;;;1.20;;
15342;SDS011;7771;48.478;8.936;2023-07-13T15:07:00;3.58;;;1.15;;
15342;SDS011;7771;48.478;8.936;2023-07-13T15:09:26;1.75;;;1.20;;
15342;SDS011;7771;48.478;8.936;2023-07-13T15:11:55;2.95;;;0.98;;
15342;SDS011;7771;48.478;8.936;2023-07-13T15:14:22;4.18;;;1.30;;
15342;SDS011;7771;48.478;8.936;2023-07-13T15:16:49;1.92;;;1.08;;
15342;SDS011;7771;48.478;8.936;2023-07-13T15:19:16;2.03;;;1.40;;
15342;SDS011;7771;48.478;8.936;2023-07-13T15:21:44;4.03;;;1.20;;
15342;SDS011;7771;48.478;8.936;2023-07-13T15:24:10;6.72;;;1.50;;